createdAt,value
2023-02-12T00:00:15.645Z,5.70
2023-02-12T00:02:48.500Z,5.20
2023-02-12T00:07:54.733Z,6.20
2023-02-12T00:10:27.518Z,5.28
2023-02-12T00:13:04.637Z,6.68
2023-02-12T00:15:39.935Z,4.70
2023-02-12T00:18:12.824Z,5.70
2023-02-12T00:20:45.662Z,7.20
2023-02-12T00:23:18.481Z,5.28
2023-02-12T00:25:51.273Z,5.78
2023-02-12T00:28:25.599Z,7.15
2023-02-12T00:30:58.797Z,5.93
2023-02-12T00:33:32.889Z,6.30
2023-02-12T00:38:39.264Z,5.78
2023-02-12T00:41:12.365Z,6.18
2023-02-12T00:43:47.298Z,5.20
2023-02-12T00:46:20.621Z,5.35
2023-02-12T00:48:53.529Z,4.40
2023-02-12T00:51:26.442Z,4.28
2023-02-12T00:56:31.995Z,4.57
2023-02-12T00:59:08.244Z,4.40
2023-02-12T01:01:41.568Z,4.68
2023-02-12T01:06:47.658Z,7.63
2023-02-12T01:09:20.567Z,4.53
2023-02-12T01:11:54.107Z,4.40
2023-02-12T01:14:28.215Z,4.75
2023-02-12T01:17:01.133Z,3.95
2023-02-12T01:22:06.777Z,3.93
2023-02-12T01:24:39.737Z,4.90
2023-02-12T01:29:46.710Z,4.25
2023-02-12T01:33:23.485Z,3.33
2023-02-12T01:36:01.366Z,5.22
2023-02-12T01:41:10.284Z,5.55
2023-02-12T01:43:46.482Z,4.55
2023-02-12T01:46:20.686Z,6.88
2023-02-12T01:48:53.489Z,6.75
2023-02-12T01:54:08.142Z,5.80
2023-02-12T01:56:48.284Z,4.10
2023-02-12T01:59:22.104Z,4.03
2023-02-12T02:01:56.546Z,4.20
2023-02-12T02:04:34.133Z,3.92
2023-02-12T02:07:09.236Z,4.35
2023-02-12T02:09:42.924Z,4.20
2023-02-12T02:12:33.316Z,5.57
2023-02-12T02:15:09.567Z,4.00
2023-02-12T02:17:51.218Z,6.03
2023-02-12T02:21:06.013Z,6.43
2023-02-12T02:24:10.944Z,3.10
2023-02-12T02:27:10.347Z,4.97
2023-02-12T02:29:58.865Z,5.22
2023-02-12T02:32:37.828Z,6.15
2023-02-12T02:35:14.136Z,4.38
2023-02-12T02:37:51.721Z,6.38
2023-02-12T02:40:31.808Z,5.45
2023-02-12T02:43:10.120Z,5.13
2023-02-12T02:45:44.617Z,6.68
2023-02-12T02:48:22.442Z,11.38
2023-02-12T02:51:01.847Z,5.72
2023-02-12T02:53:38.570Z,5.60
2023-02-12T02:56:16.651Z,5.47
2023-02-12T02:58:58.720Z,6.97
2023-02-12T03:01:37.734Z,6.63
2023-02-12T03:04:15.717Z,8.75
2023-02-12T03:06:54.760Z,6.18
2023-02-12T03:09:33.753Z,6.80
2023-02-12T03:12:12.933Z,6.80
2023-02-12T03:14:50.861Z,5.75
2023-02-12T03:17:29.012Z,6.70
2023-02-12T03:20:06.649Z,6.93
2023-02-12T03:22:43.625Z,8.15
2023-02-12T03:25:19.492Z,7.70
2023-02-12T03:28:00.686Z,7.78
2023-02-12T03:30:43.788Z,7.80
2023-02-12T03:33:23.446Z,6.82
2023-02-12T03:36:03.514Z,8.45
2023-02-12T03:38:42.558Z,5.15
2023-02-12T03:41:21.898Z,6.35
2023-02-12T03:43:57.660Z,6.65
2023-02-12T03:46:41.772Z,6.20
2023-02-12T03:49:21.498Z,6.00
2023-02-12T03:51:55.652Z,7.07
2023-02-12T03:54:28.646Z,5.90
2023-02-12T03:59:40.645Z,7.60
2023-02-12T04:02:13.987Z,6.82
2023-02-12T04:04:48.415Z,6.78
2023-02-12T04:07:22.734Z,6.97
2023-02-12T04:09:55.464Z,7.38
2023-02-12T04:12:38.217Z,7.03
2023-02-12T04:15:37.973Z,5.70
2023-02-12T04:18:16.112Z,11.43
2023-02-12T04:20:56.536Z,8.23
2023-02-12T04:23:49.062Z,6.88
2023-02-12T04:26:29.440Z,7.40
2023-02-12T04:29:13.917Z,9.77
2023-02-12T04:31:55.255Z,8.32
2023-02-12T04:34:35.364Z,13.73
2023-02-12T04:37:16.950Z,7.00
2023-02-12T04:39:53.015Z,7.53
2023-02-12T04:42:26.022Z,7.85
2023-02-12T04:47:31.416Z,7.55
2023-02-12T04:50:05.358Z,9.82
2023-02-12T04:52:38.086Z,10.27
2023-02-12T04:55:12.837Z,8.48
2023-02-12T04:57:45.707Z,9.10
2023-02-12T05:02:51.710Z,9.73
2023-02-12T05:05:25.040Z,7.95
2023-02-12T05:07:57.793Z,11.50
2023-02-12T05:10:31.917Z,11.27
2023-02-12T05:13:04.635Z,9.20
2023-02-12T05:15:39.838Z,8.57
2023-02-12T05:18:12.559Z,10.65
2023-02-12T05:20:45.188Z,9.27
2023-02-12T05:23:18.000Z,9.23
2023-02-12T05:25:52.296Z,10.02
2023-02-12T05:28:25.107Z,10.68
2023-02-12T05:31:01.093Z,11.07
2023-02-12T05:33:34.411Z,10.95
2023-02-12T05:36:09.709Z,11.73
2023-02-12T05:38:42.546Z,10.07
2023-02-12T05:41:18.528Z,11.30
2023-02-12T05:43:51.684Z,9.27
2023-02-12T05:46:24.626Z,10.60
2023-02-12T05:48:57.468Z,10.40
2023-02-12T05:51:32.219Z,8.98
2023-02-12T05:54:07.355Z,10.25
2023-02-12T05:56:46.031Z,11.70
2023-02-12T05:59:21.163Z,8.98
2023-02-12T06:01:53.986Z,8.70
2023-02-12T06:04:29.288Z,10.57
2023-02-12T06:07:02.437Z,12.20
2023-02-12T06:09:36.830Z,11.50
2023-02-12T06:12:10.988Z,10.90
2023-02-12T06:14:43.771Z,9.13
2023-02-12T06:17:16.590Z,8.77
2023-02-12T06:19:49.475Z,10.27
2023-02-12T06:24:54.910Z,10.00
2023-02-12T06:27:29.046Z,9.48
2023-02-12T06:30:01.798Z,9.80
2023-02-12T06:32:34.716Z,12.05
2023-02-12T06:37:40.612Z,9.65
2023-02-12T06:40:14.235Z,13.60
2023-02-12T06:42:50.318Z,11.60
2023-02-12T06:45:23.301Z,13.30
2023-02-12T06:50:29.664Z,14.43
2023-02-12T06:53:02.707Z,13.23
2023-02-12T06:55:36.026Z,12.90
2023-02-12T06:58:10.203Z,12.40
2023-02-12T07:00:43.042Z,11.73
2023-02-12T07:03:15.967Z,13.05
2023-02-12T07:08:21.580Z,12.20
2023-02-12T07:10:54.495Z,13.15
2023-02-12T07:13:28.578Z,12.68
2023-02-12T07:16:05.750Z,13.68
2023-02-12T07:18:39.170Z,12.98
2023-02-12T07:21:13.821Z,16.70
2023-02-12T07:23:51.026Z,11.65
2023-02-12T07:26:24.646Z,15.75
2023-02-12T07:28:59.534Z,13.85
2023-02-12T07:31:32.546Z,12.38
2023-02-12T07:34:05.712Z,14.55
2023-02-12T07:36:38.715Z,13.63
2023-02-12T07:41:44.980Z,14.80
2023-02-12T07:44:20.299Z,13.02
2023-02-12T07:46:53.009Z,14.32
2023-02-12T07:49:25.867Z,13.30
2023-02-12T07:51:58.604Z,15.25
2023-02-12T08:00:48.684Z,14.30
2023-02-12T08:03:21.499Z,16.02
2023-02-12T08:05:54.685Z,13.27
2023-02-12T08:08:27.764Z,15.02
2023-02-12T08:42:22.932Z,15.18
2023-02-12T08:50:25.375Z,18.95
2023-02-12T08:52:58.665Z,17.70
2023-02-12T09:45:40.986Z,17.10
2023-02-12T09:48:55.034Z,18.48
2023-02-12T09:51:31.359Z,18.35
2023-02-12T09:54:11.309Z,19.10
2023-02-12T09:56:49.095Z,15.95
2023-02-12T09:59:32.121Z,19.58
2023-02-12T10:02:13.014Z,16.65
2023-02-12T10:05:00.744Z,19.42
2023-02-12T10:07:47.720Z,20.85
2023-02-12T10:10:38.409Z,19.52
2023-02-12T10:13:20.162Z,19.95
2023-02-12T10:16:02.882Z,19.55
2023-02-12T10:18:55.026Z,22.48
2023-02-12T10:21:45.167Z,20.25
2023-02-12T10:24:41.983Z,22.02
2023-02-12T10:27:17.428Z,21.58
2023-02-12T10:29:51.778Z,21.10
2023-02-12T10:32:30.934Z,21.50
2023-02-12T10:35:14.928Z,21.70
2023-02-12T10:37:54.338Z,19.83
2023-02-12T10:40:34.235Z,22.20
2023-02-12T10:43:12.844Z,18.85
2023-02-12T10:45:46.414Z,22.83
2023-02-12T10:48:23.446Z,20.90
2023-02-12T10:51:14.352Z,21.23
2023-02-12T10:53:50.108Z,19.23
2023-02-12T10:56:25.699Z,18.92
2023-02-12T10:59:01.477Z,23.35
2023-02-12T11:01:37.889Z,22.27
2023-02-12T11:04:26.023Z,20.75
2023-02-12T11:07:04.900Z,18.73
2023-02-12T11:09:45.550Z,21.95
2023-02-12T11:12:29.891Z,21.80
2023-02-12T11:15:05.421Z,21.50
2023-02-12T11:17:41.698Z,18.58
2023-02-12T11:20:28.036Z,19.70
2023-02-12T11:23:06.071Z,19.48
2023-02-12T11:25:39.314Z,19.77
2023-02-12T11:28:17.889Z,19.23
2023-02-12T11:30:54.354Z,18.67
2023-02-12T11:33:31.308Z,18.98
2023-02-12T11:36:16.640Z,15.75
2023-02-12T11:38:54.767Z,15.77
2023-02-12T11:41:34.544Z,18.95
2023-02-12T11:44:13.431Z,16.02
2023-02-12T11:46:51.206Z,16.70
2023-02-12T11:49:34.703Z,17.92
2023-02-12T11:55:01.511Z,17.92
2023-02-12T11:57:56.289Z,17.88
2023-02-12T12:00:34.262Z,17.42
2023-02-12T12:03:14.215Z,16.85
2023-02-12T12:05:56.399Z,20.73
2023-02-12T12:08:43.628Z,18.02
2023-02-12T12:11:26.023Z,15.07
2023-02-12T12:14:09.363Z,18.13
2023-02-12T12:17:15.413Z,19.55
2023-02-12T12:19:58.942Z,15.15
2023-02-12T12:22:52.001Z,19.33
2023-02-12T12:25:32.317Z,18.33
2023-02-12T12:28:30.072Z,16.73
2023-02-12T12:31:16.679Z,19.25
2023-02-12T12:33:53.360Z,19.80
2023-02-12T12:36:41.453Z,19.73
2023-02-12T12:39:34.097Z,23.15
2023-02-12T12:42:32.083Z,20.75
2023-02-12T12:45:31.980Z,22.52
2023-02-12T12:48:24.968Z,24.25
2023-02-12T12:51:16.953Z,20.98
2023-02-12T12:54:00.473Z,22.67
2023-02-12T12:56:50.409Z,23.38
2023-02-12T12:59:54.367Z,26.98
2023-02-12T13:03:09.494Z,26.63
2023-02-12T13:06:11.358Z,25.52
2023-02-12T13:09:08.963Z,27.70
2023-02-12T13:11:51.368Z,27.50
2023-02-12T13:14:39.393Z,25.58
2023-02-12T13:17:20.491Z,35.78
2023-02-12T13:20:01.507Z,31.00
2023-02-12T13:22:41.644Z,31.95
2023-02-12T13:25:25.090Z,34.20
2023-02-12T13:28:00.833Z,33.70
2023-02-12T13:30:40.707Z,37.10
2023-02-12T13:33:22.011Z,33.33
2023-02-12T13:36:05.277Z,32.53
2023-02-12T13:38:45.901Z,35.60
2023-02-12T13:41:21.777Z,39.67
2023-02-12T13:44:08.926Z,32.22
2023-02-12T13:46:55.908Z,34.58
2023-02-12T13:49:40.902Z,33.47
2023-02-12T13:52:23.824Z,38.45
2023-02-12T13:55:15.476Z,34.58
2023-02-12T13:58:14.163Z,36.60
2023-02-12T14:01:01.060Z,32.08
2023-02-12T14:03:36.268Z,39.88
2023-02-12T14:06:15.574Z,35.22
2023-02-12T14:08:52.402Z,40.85
2023-02-12T14:11:31.244Z,41.42
2023-02-12T14:14:07.656Z,39.58
2023-02-12T14:16:42.252Z,33.97
2023-02-12T14:19:52.674Z,37.72
2023-02-12T14:23:05.199Z,36.45
2023-02-12T14:25:43.302Z,38.47
2023-02-12T14:28:30.909Z,39.92
2023-02-12T14:31:38.382Z,38.03
2023-02-12T14:34:50.352Z,41.10
2023-02-12T14:37:39.069Z,41.60
2023-02-12T14:40:44.520Z,41.15
2023-02-12T14:43:28.577Z,44.42
2023-02-12T14:46:49.637Z,40.88
2023-02-12T14:49:26.964Z,39.95
2023-02-12T14:52:04.883Z,41.80
2023-02-12T14:54:43.344Z,41.65
2023-02-12T14:57:25.441Z,38.35
2023-02-12T15:00:04.189Z,41.67
2023-02-12T15:02:38.238Z,45.28
2023-02-12T15:05:18.164Z,39.50
2023-02-12T15:07:56.058Z,41.17
2023-02-12T15:10:33.603Z,38.00
2023-02-12T15:13:20.860Z,41.65
2023-02-12T15:16:01.185Z,46.83
2023-02-12T15:18:46.823Z,44.60
2023-02-12T15:21:23.909Z,44.78
2023-02-12T15:24:04.576Z,41.00
2023-02-12T15:26:42.021Z,45.00
2023-02-12T15:29:23.097Z,45.47
2023-02-12T15:31:59.583Z,44.45
2023-02-12T15:34:34.490Z,43.20
2023-02-12T15:37:09.410Z,48.08
2023-02-12T15:39:45.889Z,41.38
2023-02-12T15:42:26.652Z,45.28
2023-02-12T15:45:22.101Z,42.50
2023-02-12T15:48:03.258Z,41.53
2023-02-12T15:50:38.081Z,44.50
2023-02-12T15:53:12.263Z,44.63
2023-02-12T15:55:47.582Z,46.50
2023-02-12T15:58:24.873Z,47.28
2023-02-12T16:01:02.672Z,46.97
2023-02-12T16:03:39.402Z,46.75
2023-02-12T16:06:14.086Z,54.35
2023-02-12T16:08:49.857Z,43.58
2023-02-12T16:11:24.268Z,45.38
2023-02-12T16:14:00.579Z,51.72
2023-02-12T16:16:41.971Z,51.08
2023-02-12T16:19:21.529Z,55.15
2023-02-12T16:21:57.933Z,48.60
2023-02-12T16:24:33.701Z,48.13
2023-02-12T16:27:10.820Z,45.13
2023-02-12T16:29:47.712Z,46.85
2023-02-12T16:32:36.947Z,50.50
2023-02-12T16:35:30.458Z,50.47
2023-02-12T16:40:38.623Z,47.22
2023-02-12T16:43:27.636Z,54.83
2023-02-12T16:46:06.519Z,50.10
2023-02-12T16:48:41.444Z,53.65
2023-02-12T16:51:26.162Z,49.63
2023-02-12T16:54:00.926Z,52.33
2023-02-12T16:56:38.659Z,50.13
2023-02-12T16:59:11.539Z,50.35
2023-02-12T17:04:30.646Z,49.42
2023-02-12T17:07:05.231Z,53.60
2023-02-12T17:09:38.042Z,54.67
2023-02-12T17:12:10.841Z,52.60
2023-02-12T17:14:43.881Z,52.33
2023-02-12T17:17:16.986Z,51.60
2023-02-12T17:22:27.041Z,51.58
2023-02-12T17:24:59.916Z,52.05
2023-02-12T17:30:08.967Z,52.30
2023-02-12T17:32:41.753Z,52.92
2023-02-12T17:35:15.048Z,51.25
2023-02-12T17:37:49.298Z,52.10
2023-02-12T17:40:22.327Z,54.40
2023-02-12T17:45:27.988Z,52.40
2023-02-12T17:50:33.486Z,59.13
2023-02-12T17:53:08.792Z,57.08
2023-02-12T17:55:42.237Z,55.25
2023-02-12T17:58:15.173Z,54.92
2023-02-12T18:03:20.597Z,62.90
2023-02-12T18:05:53.303Z,57.40
2023-02-12T18:08:27.605Z,54.20
2023-02-12T18:11:05.365Z,55.83
2023-02-12T18:13:39.467Z,60.60
2023-02-12T18:16:13.079Z,47.88
2023-02-12T18:18:45.889Z,55.45
2023-02-12T18:21:18.861Z,52.22
2023-02-12T18:23:54.212Z,51.35
2023-02-12T18:26:27.101Z,61.30
2023-02-12T18:31:33.679Z,55.92
2023-02-12T18:34:07.649Z,52.28
2023-02-12T18:36:40.638Z,55.28
2023-02-12T18:41:47.685Z,54.03
2023-02-12T18:46:53.311Z,53.00
2023-02-12T18:49:26.596Z,54.65
2023-02-12T18:51:59.353Z,54.67
2023-02-12T18:54:33.867Z,49.33
2023-02-12T18:57:06.597Z,49.50
2023-02-12T18:59:39.398Z,52.28
2023-02-12T19:02:13.798Z,47.92
2023-02-12T19:04:46.712Z,45.75
2023-02-12T19:09:54.478Z,50.45
2023-02-12T19:12:28.176Z,51.50
2023-02-12T19:15:01.405Z,47.97
2023-02-12T19:17:36.165Z,44.88
2023-02-12T19:20:14.670Z,54.40
2023-02-12T19:22:47.476Z,47.90
2023-02-12T19:25:25.653Z,44.78
2023-02-12T19:27:58.636Z,41.88
2023-02-12T19:30:31.753Z,46.72
2023-02-12T19:33:05.163Z,44.03
2023-02-12T19:35:37.914Z,44.78
2023-02-12T19:38:10.605Z,47.75
2023-02-12T19:40:44.772Z,45.17
2023-02-12T19:43:17.508Z,49.22
2023-02-12T19:45:50.317Z,48.50
2023-02-12T19:48:23.397Z,53.83
2023-02-12T19:50:56.566Z,42.45
2023-02-12T19:53:29.813Z,46.88
2023-02-12T19:56:05.094Z,44.40
2023-02-12T19:58:38.496Z,47.60
2023-02-12T20:01:13.357Z,50.15
2023-02-12T20:03:47.684Z,53.72
2023-02-12T20:06:23.614Z,42.10
2023-02-12T20:08:56.966Z,44.55
2023-02-12T20:11:33.124Z,42.97
2023-02-12T20:14:07.580Z,41.58
2023-02-12T20:16:43.750Z,43.65
2023-02-12T20:19:20.586Z,44.17
2023-02-12T20:21:55.820Z,45.17
2023-02-12T20:24:31.030Z,45.55
2023-02-12T20:27:05.267Z,50.15
2023-02-12T20:29:38.161Z,48.40
2023-02-12T20:34:50.762Z,49.67
2023-02-12T20:37:24.185Z,46.72
2023-02-12T20:39:57.058Z,48.75
2023-02-12T20:42:31.285Z,43.95
2023-02-12T20:45:04.101Z,48.13
2023-02-12T20:50:10.277Z,44.60
2023-02-12T20:52:43.360Z,44.75
2023-02-12T20:57:50.631Z,44.35
2023-02-12T21:00:23.842Z,49.72
2023-02-12T21:02:57.329Z,46.40
2023-02-12T21:05:30.926Z,45.25
2023-02-12T21:08:03.738Z,47.63
2023-02-12T21:13:10.441Z,48.83
2023-02-12T21:15:43.307Z,43.33
2023-02-12T21:18:16.284Z,39.33
2023-02-12T21:23:21.513Z,40.63
2023-02-12T21:26:00.743Z,48.83
2023-02-12T21:28:35.874Z,42.72
2023-02-12T21:31:10.923Z,43.83
2023-02-12T21:33:45.507Z,41.70
2023-02-12T21:36:20.898Z,40.55
2023-02-12T21:38:54.407Z,47.50
2023-02-12T21:41:29.004Z,41.03
2023-02-12T21:44:05.784Z,44.53
2023-02-12T21:46:39.163Z,44.25
2023-02-12T21:49:12.917Z,41.33
2023-02-12T21:51:46.612Z,42.67
2023-02-12T21:54:20.481Z,39.33
2023-02-12T21:56:53.314Z,41.50
2023-02-12T21:59:31.751Z,38.55
2023-02-12T22:02:06.051Z,40.70
2023-02-12T22:04:38.921Z,40.65
2023-02-12T22:07:11.722Z,39.67
2023-02-12T22:09:44.696Z,40.30
2023-02-12T22:12:17.540Z,43.97
2023-02-12T22:14:51.698Z,44.17
2023-02-12T22:17:24.446Z,36.05
2023-02-12T22:19:57.203Z,38.20
2023-02-12T22:22:30.169Z,38.47
2023-02-12T22:25:03.497Z,38.03
2023-02-12T22:27:36.320Z,37.35
2023-02-12T22:30:11.417Z,35.28
2023-02-12T22:32:44.299Z,38.28
2023-02-12T22:35:17.556Z,36.88
2023-02-12T22:40:23.232Z,39.90
2023-02-12T22:42:55.972Z,38.17
2023-02-12T22:45:30.276Z,36.15
2023-02-12T22:48:03.081Z,38.72
2023-02-12T22:53:09.865Z,35.70
2023-02-12T22:55:42.826Z,41.25
2023-02-12T23:00:50.151Z,44.75
2023-02-12T23:03:23.122Z,45.42
2023-02-12T23:08:28.586Z,41.70
2023-02-12T23:11:01.604Z,43.40
2023-02-12T23:13:34.549Z,38.90
2023-02-12T23:16:09.356Z,39.47
2023-02-12T23:18:42.242Z,42.55
2023-02-12T23:23:48.114Z,42.08
2023-02-12T23:26:20.966Z,45.88
2023-02-12T23:31:28.021Z,28.97
2023-02-12T23:34:00.800Z,47.17
2023-02-12T23:36:33.892Z,41.92
2023-02-12T23:39:06.722Z,47.38
2023-02-12T23:41:39.609Z,45.90
2023-02-12T23:44:12.888Z,46.35
2023-02-12T23:46:51.881Z,48.70
2023-02-12T23:49:24.730Z,48.60
2023-02-12T23:51:57.501Z,44.95
2023-02-12T23:54:31.636Z,54.55
2023-02-12T23:57:04.413Z,48.80
